createdAt,value
2019-02-28T00:05:07.983Z,10.00
2019-02-28T00:17:31.017Z,15.50
2019-02-28T00:21:40.573Z,12.90
2019-02-28T00:34:05.463Z,13.85
2019-02-28T00:38:10.314Z,12.60
2019-02-28T00:46:25.901Z,12.40
2019-02-28T00:50:34.030Z,9.50
2019-02-28T00:58:49.649Z,14.90
2019-02-28T01:02:58.068Z,10.73
2019-02-28T01:07:05.915Z,11.00
2019-02-28T01:11:14.022Z,11.83
2019-02-28T01:19:29.610Z,9.80
2019-02-28T01:23:37.766Z,14.25
2019-02-28T01:31:53.366Z,10.80
2019-02-28T01:36:01.497Z,11.10
2019-02-28T01:44:17.090Z,13.70
2019-02-28T01:48:25.231Z,17.50
2019-02-28T01:52:33.368Z,15.60
2019-02-28T01:56:41.497Z,16.20
2019-02-28T02:00:49.646Z,18.93
2019-02-28T02:04:57.801Z,16.77
2019-02-28T02:09:08.171Z,14.60
2019-02-28T02:13:14.666Z,22.37
2019-02-28T02:17:22.809Z,18.90
2019-02-28T02:21:31.492Z,15.63
2019-02-28T02:25:39.089Z,17.67
2019-02-28T02:29:47.265Z,14.60
2019-02-28T02:33:55.394Z,14.80
2019-02-28T02:38:04.697Z,14.27
2019-02-28T02:42:11.826Z,16.60
2019-02-28T02:46:21.243Z,15.80
2019-02-28T02:50:33.928Z,15.50
2019-02-28T03:11:05.938Z,12.20
2019-02-28T03:15:14.594Z,15.75
2019-02-28T03:19:22.735Z,17.30
2019-02-28T03:23:37.960Z,17.17
2019-02-28T03:27:39.047Z,18.50
2019-02-28T03:31:54.995Z,17.20
2019-02-28T03:35:55.303Z,17.30
2019-02-28T03:40:05.161Z,17.30
2019-02-28T03:44:19.809Z,20.00
2019-02-28T03:48:19.882Z,19.67
2019-02-28T03:52:28.025Z,18.10
2019-02-28T03:56:36.153Z,20.40
2019-02-28T04:00:44.293Z,16.50
2019-02-28T04:04:52.447Z,20.50
2019-02-28T04:09:07.280Z,18.20
2019-02-28T04:13:08.709Z,21.10
2019-02-28T04:17:16.832Z,21.53
2019-02-28T04:21:25.061Z,17.43
2019-02-28T04:25:33.212Z,27.73
2019-02-28T04:29:41.350Z,20.90
2019-02-28T04:33:49.489Z,21.37
2019-02-28T04:37:57.632Z,24.93
2019-02-28T04:42:06.110Z,26.43
2019-02-28T04:46:13.895Z,23.50
2019-02-28T04:50:22.029Z,20.83
2019-02-28T04:54:30.196Z,24.20
2019-02-28T04:58:38.344Z,30.90
2019-02-28T05:02:46.478Z,23.10
2019-02-28T05:06:55.297Z,23.93
2019-02-28T05:11:02.753Z,20.80
2019-02-28T05:15:10.944Z,31.30
2019-02-28T05:19:19.074Z,28.90
2019-02-28T05:23:27.242Z,29.93
2019-02-28T05:31:42.825Z,27.93
2019-02-28T05:35:50.993Z,34.63
2019-02-28T05:39:59.134Z,25.30
2019-02-28T05:44:07.438Z,28.37
2019-02-28T05:52:22.866Z,29.03
2019-02-28T05:56:33.308Z,32.57
2019-02-28T06:00:39.129Z,29.83
2019-02-28T06:04:47.282Z,32.80
2019-02-28T06:08:55.429Z,33.17
2019-02-28T06:13:03.561Z,39.67
2019-02-28T06:17:11.758Z,36.40
2019-02-28T06:21:19.894Z,50.87
2019-02-28T06:25:28.023Z,43.63
2019-02-28T06:29:36.811Z,54.13
2019-02-28T06:33:44.350Z,48.53
2019-02-28T06:37:52.580Z,57.20
2019-02-28T06:46:08.755Z,52.40
2019-02-28T06:50:16.325Z,61.17
2019-02-28T06:54:24.497Z,54.80
2019-02-28T06:58:33.285Z,55.20
2019-02-28T07:02:40.792Z,55.15
2019-02-28T07:06:48.967Z,50.55
2019-02-28T07:15:05.029Z,50.53
2019-02-28T07:19:13.163Z,45.00
2019-02-28T07:23:22.265Z,59.77
2019-02-28T07:27:41.473Z,57.80
2019-02-28T07:31:49.681Z,48.30
2019-02-28T07:35:57.809Z,57.03
2019-02-28T07:40:07.178Z,63.03
2019-02-28T07:44:21.245Z,55.85
2019-02-28T07:48:26.821Z,57.85
2019-02-28T07:52:33.552Z,58.77
2019-02-28T07:56:43.187Z,51.93
2019-02-28T08:00:48.459Z,53.23
2019-02-28T08:04:55.985Z,44.70
2019-02-28T08:09:05.551Z,53.53
2019-02-28T08:13:13.311Z,48.70
2019-02-28T08:17:21.429Z,45.97
2019-02-28T08:21:29.680Z,43.77
2019-02-28T08:25:39.702Z,57.43
2019-02-28T08:29:46.084Z,44.67
2019-02-28T08:33:54.070Z,45.87
2019-02-28T08:42:09.646Z,57.60
2019-02-28T08:46:17.774Z,55.13
2019-02-28T08:50:25.925Z,47.77
2019-02-28T09:02:52.433Z,38.65
2019-02-28T09:06:57.138Z,40.00
2019-02-28T09:11:05.274Z,39.00
2019-02-28T09:15:13.993Z,39.30
2019-02-28T09:23:29.592Z,33.70
2019-02-28T09:31:45.235Z,38.00
2019-02-28T09:35:53.357Z,38.90
2019-02-28T09:40:01.478Z,38.37
2019-02-28T09:44:09.619Z,37.90
2019-02-28T09:48:17.749Z,36.43
2019-02-28T09:52:25.869Z,43.33
2019-02-28T09:56:34.002Z,36.53
2019-02-28T10:00:43.268Z,37.00
2019-02-28T10:04:50.372Z,59.40
2019-02-28T10:08:58.582Z,66.10
2019-02-28T10:13:06.714Z,39.10
2019-02-28T10:17:14.857Z,32.97
2019-02-28T10:21:23.002Z,38.37
2019-02-28T10:25:31.241Z,35.97
2019-02-28T10:29:41.950Z,41.60
2019-02-28T10:33:49.495Z,37.37
2019-02-28T10:37:58.366Z,39.33
2019-02-28T10:42:05.174Z,40.70
2019-02-28T10:46:13.414Z,32.03
2019-02-28T10:50:21.554Z,34.70
2019-02-28T10:54:29.694Z,38.40
2019-02-28T10:58:37.813Z,35.90
2019-02-28T11:02:45.970Z,32.60
2019-02-28T11:06:54.108Z,34.30
2019-02-28T11:11:02.259Z,33.33
2019-02-28T11:15:13.724Z,31.80
2019-02-28T11:19:25.183Z,31.30
2019-02-28T11:23:33.310Z,35.03
2019-02-28T11:27:41.482Z,33.27
2019-02-28T11:31:50.615Z,29.70
2019-02-28T11:35:58.819Z,36.05
2019-02-28T11:40:08.501Z,33.17
2019-02-28T11:44:14.113Z,33.30
2019-02-28T11:48:22.335Z,34.40
2019-02-28T11:52:30.443Z,39.50
2019-02-28T11:56:38.585Z,41.60
2019-02-28T12:00:46.750Z,41.40
2019-02-28T12:04:54.870Z,38.20
2019-02-28T12:09:03.307Z,40.10
2019-02-28T12:13:11.432Z,44.20
2019-02-28T12:17:19.561Z,43.30
2019-02-28T12:21:27.705Z,48.73
2019-02-28T12:25:35.837Z,45.15
2019-02-28T12:29:45.577Z,44.03
2019-02-28T12:33:53.408Z,43.60
2019-02-28T12:38:00.243Z,48.60
2019-02-28T12:42:08.369Z,43.70
2019-02-28T12:46:16.586Z,50.17
2019-02-28T12:50:24.722Z,52.65
2019-02-28T12:54:33.400Z,56.70
2019-02-28T12:58:41.715Z,51.23
2019-02-28T13:02:49.119Z,52.00
2019-02-28T13:06:58.827Z,51.20
2019-02-28T13:11:05.490Z,55.95
2019-02-28T13:15:13.948Z,55.20
2019-02-28T13:19:21.915Z,52.95
2019-02-28T13:23:32.818Z,48.10
2019-02-28T13:27:41.378Z,50.45
2019-02-28T13:31:46.330Z,34.20
2019-02-28T13:35:54.499Z,35.10
2019-02-28T13:44:10.285Z,31.30
2019-02-28T13:52:25.899Z,27.40
2019-02-28T14:04:51.706Z,23.30
2019-02-28T14:09:00.025Z,19.90
2019-02-28T14:17:16.927Z,20.80
2019-02-28T14:21:25.134Z,15.60
2019-02-28T14:33:48.290Z,11.95
2019-02-28T14:42:06.592Z,12.60
2019-02-28T14:46:15.143Z,19.00
2019-02-28T14:50:20.297Z,13.25
2019-02-28T14:54:28.467Z,17.00
2019-02-28T14:58:36.631Z,14.80
2019-02-28T15:02:44.817Z,14.80
2019-02-28T15:06:52.981Z,13.50
2019-02-28T15:11:01.098Z,14.80
2019-02-28T15:15:14.898Z,13.50
2019-02-28T15:19:21.476Z,13.20
2019-02-28T15:23:30.855Z,12.90
2019-02-28T15:27:39.017Z,11.50
2019-02-28T15:31:44.647Z,13.90
2019-02-28T15:35:52.822Z,9.33
2019-02-28T15:40:00.966Z,13.10
2019-02-28T15:44:10.001Z,11.70
2019-02-28T15:48:18.169Z,9.85
2019-02-28T15:56:33.803Z,14.85
2019-02-28T16:00:43.077Z,16.00
2019-02-28T16:33:46.166Z,21.90
2019-02-28T17:06:47.533Z,14.90
2019-02-28T17:15:03.658Z,14.80
2019-02-28T17:23:19.321Z,13.20
2019-02-28T17:27:33.868Z,14.50
2019-02-28T17:31:44.565Z,14.00
2019-02-28T17:44:12.890Z,13.30
2019-02-28T17:48:29.729Z,20.45
2019-02-28T18:17:17.334Z,20.00
2019-02-28T18:21:37.590Z,20.90
2019-02-28T18:25:57.008Z,16.90
2019-02-28T18:42:30.204Z,23.10
2019-02-28T18:46:38.430Z,16.50
2019-02-28T18:50:46.699Z,18.10
2019-02-28T18:54:55.053Z,19.80
2019-02-28T18:59:03.285Z,20.50
2019-02-28T19:03:11.521Z,23.80
2019-02-28T19:11:27.379Z,20.50
2019-02-28T19:15:35.598Z,19.15
2019-02-28T19:19:43.783Z,22.85
2019-02-28T19:23:51.962Z,24.20
2019-02-28T19:28:02.040Z,18.90
2019-02-28T19:32:08.379Z,20.75
2019-02-28T19:36:16.557Z,23.40
2019-02-28T19:40:24.883Z,25.70
2019-02-28T19:44:33.118Z,24.95
2019-02-28T19:48:41.302Z,19.00
2019-02-28T19:52:49.563Z,21.80
2019-02-28T19:56:57.730Z,19.50
2019-02-28T20:01:06.031Z,21.80
2019-02-28T20:05:14.291Z,16.70
2019-02-28T20:09:22.475Z,21.40
2019-02-28T20:13:30.674Z,18.40
2019-02-28T20:17:39.019Z,21.70
2019-02-28T20:21:47.223Z,17.80
2019-02-28T20:25:55.386Z,20.77
2019-02-28T20:30:03.726Z,24.30
2019-02-28T20:34:11.992Z,17.60
2019-02-28T20:38:20.151Z,16.85
2019-02-28T20:42:28.342Z,14.85
2019-02-28T20:46:36.567Z,15.50
2019-02-28T20:50:46.239Z,12.30
2019-02-28T20:54:53.014Z,15.70
2019-02-28T21:15:31.506Z,10.50
2019-02-28T21:27:54.772Z,7.80
2019-02-28T21:40:18.079Z,9.30
2019-02-28T21:44:26.331Z,12.20
2019-02-28T21:48:34.493Z,7.60
2019-02-28T21:52:42.687Z,8.50
2019-02-28T21:56:50.997Z,8.43
2019-02-28T22:00:59.158Z,8.30
2019-02-28T22:05:08.989Z,8.97
2019-02-28T22:17:32.199Z,6.90
2019-02-28T22:38:14.080Z,7.20
2019-02-28T23:02:59.715Z,9.50
2019-02-28T23:11:15.509Z,7.10
2019-02-28T23:15:23.700Z,11.23
2019-02-28T23:48:30.043Z,5.20
